createdAt,value
2023-03-17T00:01:54.088Z,2.13
2023-03-17T00:04:22.490Z,1.92
2023-03-17T00:06:49.465Z,2.45
2023-03-17T00:09:18.173Z,2.13
2023-03-17T00:11:46.357Z,2.38
2023-03-17T00:14:13.243Z,1.95
2023-03-17T00:16:43.801Z,1.80
2023-03-17T00:19:20.083Z,1.80
2023-03-17T00:21:48.016Z,2.22
2023-03-17T00:24:15.952Z,1.85
2023-03-17T00:26:43.472Z,1.92
2023-03-17T00:29:10.625Z,2.30
2023-03-17T00:31:39.127Z,2.20
2023-03-17T00:34:08.018Z,2.00
2023-03-17T00:36:35.801Z,2.08
2023-03-17T00:39:06.461Z,2.08
2023-03-17T00:41:34.192Z,2.30
2023-03-17T00:44:01.849Z,2.17
2023-03-17T00:46:35.711Z,1.88
2023-03-17T00:49:24.320Z,1.95
2023-03-17T00:51:51.839Z,2.00
2023-03-17T00:54:20.894Z,2.10
2023-03-17T00:56:49.355Z,2.33
2023-03-17T00:59:25.386Z,2.28
2023-03-17T01:04:20.569Z,2.03
2023-03-17T01:06:49.365Z,1.90
2023-03-17T01:09:20.405Z,2.15
2023-03-17T01:11:48.638Z,1.85
2023-03-17T01:14:15.729Z,1.70
2023-03-17T01:16:43.220Z,1.88
2023-03-17T01:19:12.993Z,1.85
2023-03-17T01:21:40.764Z,1.45
2023-03-17T01:24:08.357Z,1.40
2023-03-17T01:26:36.097Z,2.08
2023-03-17T01:29:03.341Z,1.88
2023-03-17T01:31:30.498Z,2.00
2023-03-17T01:33:58.054Z,1.80
2023-03-17T01:36:25.324Z,1.60
2023-03-17T01:38:52.723Z,2.00
2023-03-17T01:41:23.368Z,1.80
2023-03-17T01:43:50.192Z,1.67
2023-03-17T01:46:25.513Z,1.60
2023-03-17T01:49:10.761Z,1.50
2023-03-17T01:52:02.567Z,1.58
2023-03-17T01:54:48.180Z,1.30
2023-03-17T01:57:15.012Z,1.63
2023-03-17T01:59:53.462Z,1.90
2023-03-17T02:02:32.335Z,1.67
2023-03-17T02:04:59.647Z,1.77
2023-03-17T02:07:28.042Z,1.85
2023-03-17T02:09:57.131Z,2.10
2023-03-17T02:12:27.100Z,2.03
2023-03-17T02:14:54.365Z,1.73
2023-03-17T02:17:24.001Z,1.67
2023-03-17T02:19:51.683Z,1.80
2023-03-17T02:22:20.034Z,1.90
2023-03-17T02:24:59.509Z,1.73
2023-03-17T02:27:34.814Z,1.38
2023-03-17T02:30:02.562Z,1.73
2023-03-17T02:32:29.836Z,1.88
2023-03-17T02:34:57.236Z,1.75
2023-03-17T02:37:24.467Z,1.83
2023-03-17T02:39:52.619Z,1.90
2023-03-17T02:42:20.193Z,1.40
2023-03-17T02:44:47.512Z,1.83
2023-03-17T02:47:14.774Z,2.25
2023-03-17T02:49:43.092Z,1.63
2023-03-17T02:52:09.999Z,1.77
2023-03-17T02:54:37.418Z,1.50
2023-03-17T02:57:04.478Z,1.65
2023-03-17T02:59:31.962Z,1.63
2023-03-17T03:01:59.215Z,1.95
2023-03-17T03:04:26.309Z,2.25
2023-03-17T03:11:06.449Z,1.40
2023-03-17T03:13:33.684Z,1.80
2023-03-17T03:16:00.697Z,1.75
2023-03-17T03:18:28.127Z,1.83
2023-03-17T03:20:55.376Z,1.92
2023-03-17T03:23:22.847Z,1.75
2023-03-17T03:25:49.766Z,1.70
2023-03-17T03:28:17.010Z,1.98
2023-03-17T03:30:44.789Z,1.70
2023-03-17T03:33:13.358Z,1.88
2023-03-17T03:35:40.766Z,1.58
2023-03-17T03:38:08.788Z,2.10
2023-03-17T03:40:37.087Z,1.40
2023-03-17T03:43:19.855Z,1.80
2023-03-17T03:45:49.489Z,2.00
2023-03-17T03:48:16.827Z,1.60
2023-03-17T03:50:43.839Z,1.80
2023-03-17T03:53:11.153Z,1.70
2023-03-17T03:55:38.424Z,1.75
2023-03-17T03:58:05.812Z,2.00
2023-03-17T04:00:33.386Z,1.80
2023-03-17T04:03:01.672Z,1.70
2023-03-17T04:05:28.643Z,1.92
2023-03-17T04:07:56.096Z,1.45
2023-03-17T04:10:23.301Z,1.30
2023-03-17T04:12:50.370Z,1.55
2023-03-17T04:15:19.776Z,1.77
2023-03-17T04:17:47.087Z,1.67
2023-03-17T04:20:15.441Z,1.20
2023-03-17T04:22:43.005Z,1.50
2023-03-17T04:25:13.554Z,1.50
2023-03-17T04:27:41.866Z,1.80
2023-03-17T04:30:13.579Z,1.98
2023-03-17T04:32:41.694Z,1.55
2023-03-17T04:35:19.492Z,1.50
2023-03-17T04:37:47.975Z,1.63
2023-03-17T04:40:16.173Z,1.55
2023-03-17T04:42:43.425Z,1.58
2023-03-17T04:45:12.706Z,1.83
2023-03-17T04:47:40.005Z,1.83
2023-03-17T04:50:08.950Z,2.05
2023-03-17T04:52:36.936Z,2.10
2023-03-17T04:55:05.615Z,1.80
2023-03-17T04:57:32.606Z,1.63
2023-03-17T05:00:03.466Z,1.38
2023-03-17T05:02:31.035Z,1.85
2023-03-17T05:04:57.978Z,1.42
2023-03-17T05:07:25.282Z,1.70
2023-03-17T05:09:52.546Z,2.10
2023-03-17T05:12:19.405Z,2.00
2023-03-17T05:14:46.710Z,1.60
2023-03-17T05:17:14.141Z,1.75
2023-03-17T05:19:41.097Z,1.58
2023-03-17T05:22:08.393Z,1.80
2023-03-17T05:24:35.642Z,1.60
2023-03-17T05:27:02.931Z,1.77
2023-03-17T05:29:30.186Z,2.17
2023-03-17T05:31:57.448Z,1.80
2023-03-17T05:34:24.726Z,1.73
2023-03-17T05:36:52.052Z,1.60
2023-03-17T05:39:19.316Z,1.75
2023-03-17T05:41:47.101Z,1.88
2023-03-17T05:44:14.561Z,1.92
2023-03-17T05:46:42.121Z,1.75
2023-03-17T05:49:10.097Z,1.85
2023-03-17T05:51:37.458Z,1.77
2023-03-17T05:54:04.473Z,2.58
2023-03-17T05:56:33.775Z,2.05
2023-03-17T05:59:03.223Z,2.22
2023-03-17T06:01:31.430Z,1.85
2023-03-17T06:04:00.974Z,1.95
2023-03-17T06:06:28.704Z,2.25
2023-03-17T06:08:56.729Z,2.55
2023-03-17T06:11:24.198Z,2.15
2023-03-17T06:13:51.703Z,1.77
2023-03-17T06:16:19.708Z,2.05
2023-03-17T06:18:49.784Z,2.45
2023-03-17T06:21:17.036Z,2.58
2023-03-17T06:23:44.308Z,2.38
2023-03-17T06:26:11.886Z,2.20
2023-03-17T06:28:38.762Z,2.47
2023-03-17T06:31:07.452Z,3.10
2023-03-17T06:33:35.903Z,2.22
2023-03-17T06:36:03.319Z,3.17
2023-03-17T06:38:30.611Z,2.40
2023-03-17T06:40:58.036Z,2.30
2023-03-17T06:43:25.576Z,2.20
2023-03-17T06:45:53.040Z,2.63
2023-03-17T06:48:20.480Z,1.85
2023-03-17T06:50:47.814Z,2.22
2023-03-17T06:53:15.458Z,2.78
2023-03-17T06:55:42.976Z,2.05
2023-03-17T06:58:10.639Z,2.67
2023-03-17T07:00:40.782Z,2.90
2023-03-17T07:03:09.985Z,2.88
2023-03-17T07:05:39.393Z,2.60
2023-03-17T07:08:06.958Z,2.92
2023-03-17T07:10:34.222Z,3.13
2023-03-17T07:13:02.412Z,2.67
2023-03-17T07:15:34.719Z,3.42
2023-03-17T07:18:02.476Z,2.50
2023-03-17T07:20:29.869Z,3.45
2023-03-17T07:22:57.287Z,2.78
2023-03-17T07:25:24.513Z,2.75
2023-03-17T07:27:52.087Z,2.95
2023-03-17T07:30:19.365Z,2.75
2023-03-17T07:32:47.911Z,2.83
2023-03-17T07:35:16.352Z,2.80
2023-03-17T07:37:44.648Z,2.28
2023-03-17T07:40:12.517Z,2.47
2023-03-17T07:42:39.774Z,2.20
2023-03-17T07:45:07.921Z,2.60
2023-03-17T07:47:35.279Z,2.42
2023-03-17T07:50:02.588Z,2.60
2023-03-17T07:52:29.887Z,2.30
2023-03-17T07:54:58.290Z,2.88
2023-03-17T07:57:25.717Z,2.38
2023-03-17T07:59:52.810Z,2.63
2023-03-17T08:02:21.147Z,3.40
2023-03-17T08:04:48.122Z,3.03
2023-03-17T08:07:15.664Z,3.20
2023-03-17T08:09:42.945Z,3.05
2023-03-17T08:12:10.874Z,3.08
2023-03-17T08:14:37.741Z,2.75
2023-03-17T08:17:05.098Z,3.30
2023-03-17T08:19:32.151Z,3.20
2023-03-17T08:21:59.468Z,3.35
2023-03-17T08:24:27.104Z,3.28
2023-03-17T08:26:54.406Z,3.17
2023-03-17T08:29:21.305Z,3.45
2023-03-17T08:31:48.606Z,3.55
2023-03-17T08:34:16.581Z,3.50
2023-03-17T08:36:43.494Z,3.53
2023-03-17T08:39:11.058Z,3.08
2023-03-17T08:41:38.564Z,3.17
2023-03-17T08:44:05.816Z,3.28
2023-03-17T08:46:33.112Z,3.03
2023-03-17T08:49:00.952Z,2.75
2023-03-17T08:51:31.258Z,2.92
2023-03-17T08:53:59.000Z,4.00
2023-03-17T08:56:26.360Z,2.95
2023-03-17T08:58:54.801Z,3.25
2023-03-17T09:01:23.103Z,3.38
2023-03-17T09:03:52.768Z,3.33
2023-03-17T09:06:20.207Z,3.40
2023-03-17T09:08:50.896Z,3.25
2023-03-17T09:11:20.341Z,2.97
2023-03-17T09:13:47.838Z,3.55
2023-03-17T09:16:16.218Z,3.72
2023-03-17T09:18:43.667Z,3.58
2023-03-17T09:21:12.550Z,3.67
2023-03-17T09:23:39.863Z,2.92
2023-03-17T09:26:09.067Z,3.15
2023-03-17T09:28:37.295Z,3.55
2023-03-17T09:31:06.354Z,3.55
2023-03-17T09:33:33.242Z,3.58
2023-03-17T09:36:00.677Z,3.88
2023-03-17T09:38:28.033Z,3.30
2023-03-17T09:41:04.982Z,3.45
2023-03-17T09:43:32.552Z,3.90
2023-03-17T09:46:25.062Z,3.90
2023-03-17T09:49:22.820Z,3.90
2023-03-17T09:51:50.094Z,3.72
2023-03-17T09:54:49.610Z,3.30
2023-03-17T09:57:32.978Z,3.25
2023-03-17T10:00:09.870Z,3.65
2023-03-17T10:02:37.861Z,3.20
2023-03-17T10:05:22.264Z,3.25
2023-03-17T10:07:49.576Z,3.85
2023-03-17T10:10:29.370Z,3.00
2023-03-17T10:13:10.523Z,3.13
2023-03-17T10:15:55.528Z,3.30
2023-03-17T10:18:27.934Z,3.10
2023-03-17T10:21:02.274Z,3.42
2023-03-17T10:23:33.505Z,3.05
2023-03-17T10:26:17.306Z,3.17
2023-03-17T10:28:44.306Z,3.20
2023-03-17T10:31:16.555Z,3.17
2023-03-17T10:33:46.959Z,3.35
2023-03-17T10:36:16.701Z,3.08
2023-03-17T10:38:56.494Z,3.38
2023-03-17T10:41:23.432Z,3.42
2023-03-17T10:43:53.683Z,3.80
2023-03-17T10:46:25.833Z,3.75
2023-03-17T10:49:02.182Z,2.80
2023-03-17T10:51:32.493Z,3.22
2023-03-17T10:54:17.774Z,2.90
2023-03-17T10:56:48.898Z,2.97
2023-03-17T10:59:32.510Z,3.03
2023-03-17T11:02:01.442Z,3.10
2023-03-17T11:04:32.137Z,3.08
2023-03-17T11:07:04.969Z,2.88
2023-03-17T11:09:36.798Z,3.47
2023-03-17T11:12:08.969Z,2.72
2023-03-17T11:14:36.418Z,3.15
2023-03-17T11:17:16.424Z,3.35
2023-03-17T11:20:04.846Z,3.13
2023-03-17T11:22:40.141Z,3.33
2023-03-17T11:25:19.665Z,2.92
2023-03-17T11:27:47.274Z,3.50
2023-03-17T11:30:34.038Z,3.67
2023-03-17T11:33:38.443Z,4.00
2023-03-17T11:36:43.386Z,3.60
2023-03-17T11:39:17.153Z,3.40
2023-03-17T11:41:59.559Z,3.65
2023-03-17T11:44:26.811Z,3.88
2023-03-17T11:47:05.277Z,3.33
2023-03-17T11:49:37.661Z,3.38
2023-03-17T11:52:28.580Z,3.15
2023-03-17T11:55:21.572Z,2.80
2023-03-17T11:58:01.505Z,3.22
2023-03-17T12:00:43.941Z,3.00
2023-03-17T12:03:25.398Z,3.13
2023-03-17T12:05:58.240Z,2.80
2023-03-17T12:08:40.836Z,3.55
2023-03-17T12:11:12.355Z,2.90
2023-03-17T12:13:40.997Z,2.67
2023-03-17T12:16:20.254Z,2.47
2023-03-17T12:19:23.266Z,3.13
2023-03-17T12:21:59.412Z,2.30
2023-03-17T12:24:40.363Z,2.97
2023-03-17T12:27:32.038Z,3.20
2023-03-17T12:30:05.434Z,2.72
2023-03-17T12:32:44.019Z,2.63
2023-03-17T12:35:32.016Z,2.22
2023-03-17T12:38:01.444Z,2.00
2023-03-17T12:40:36.581Z,1.75
2023-03-17T12:43:27.741Z,2.80
2023-03-17T12:46:16.079Z,2.00
2023-03-17T12:49:04.943Z,1.92
2023-03-17T12:52:14.391Z,1.70
2023-03-17T12:54:46.735Z,2.22
2023-03-17T12:57:24.272Z,2.03
2023-03-17T13:00:05.659Z,2.05
2023-03-17T13:02:41.272Z,2.45
2023-03-17T13:05:16.544Z,2.50
2023-03-17T13:07:51.492Z,2.10
2023-03-17T13:10:42.896Z,2.13
2023-03-17T13:13:41.271Z,1.70
2023-03-17T13:16:28.052Z,2.13
2023-03-17T13:19:14.644Z,2.42
2023-03-17T13:21:50.622Z,1.60
2023-03-17T13:27:01.988Z,1.30
2023-03-17T13:29:35.487Z,1.30
2023-03-17T13:32:26.819Z,1.45
2023-03-17T13:35:13.394Z,1.58
2023-03-17T13:38:09.854Z,1.42
2023-03-17T13:40:55.849Z,1.40
2023-03-17T13:43:43.493Z,1.67
2023-03-17T13:46:34.096Z,1.45
2023-03-17T13:49:26.763Z,1.25
2023-03-17T13:52:15.636Z,1.20
2023-03-17T13:54:49.677Z,1.20
2023-03-17T13:57:35.314Z,1.25
2023-03-17T14:00:15.107Z,1.40
2023-03-17T14:02:43.520Z,1.27
2023-03-17T14:05:29.781Z,1.10
2023-03-17T14:08:03.792Z,0.90
2023-03-17T14:10:32.657Z,1.13
2023-03-17T14:13:08.587Z,1.00
2023-03-17T14:15:56.351Z,0.95
2023-03-17T14:18:51.934Z,0.75
2023-03-17T14:21:24.423Z,1.08
2023-03-17T14:24:01.447Z,1.20
2023-03-17T14:26:31.247Z,1.48
2023-03-17T14:29:04.845Z,1.30
2023-03-17T14:31:31.986Z,1.00
2023-03-17T14:34:00.454Z,0.93
2023-03-17T14:36:28.780Z,1.10
2023-03-17T14:38:57.275Z,1.20
2023-03-17T14:41:28.897Z,1.17
2023-03-17T14:44:00.394Z,1.25
2023-03-17T14:46:32.032Z,1.40
2023-03-17T14:49:00.818Z,1.00
2023-03-17T14:51:28.094Z,1.02
2023-03-17T14:54:00.136Z,0.90
2023-03-17T14:56:35.006Z,1.30
2023-03-17T14:59:18.519Z,1.02
2023-03-17T15:01:48.487Z,1.13
2023-03-17T15:04:17.119Z,1.30
2023-03-17T15:06:56.311Z,1.15
2023-03-17T15:09:40.763Z,1.10
2023-03-17T15:12:18.946Z,0.95
2023-03-17T15:14:46.544Z,1.15
2023-03-17T15:17:28.783Z,0.88
2023-03-17T15:19:59.914Z,0.88
2023-03-17T15:22:36.156Z,0.82
2023-03-17T15:25:38.709Z,0.95
2023-03-17T15:28:16.508Z,0.98
2023-03-17T15:30:48.192Z,0.90
2023-03-17T15:33:30.552Z,1.10
2023-03-17T15:36:00.019Z,1.15
2023-03-17T15:38:27.409Z,1.13
2023-03-17T15:40:54.562Z,0.75
2023-03-17T15:43:22.600Z,0.98
2023-03-17T15:46:03.321Z,0.70
2023-03-17T15:48:35.156Z,1.10
2023-03-17T15:51:04.511Z,1.00
2023-03-17T15:53:32.201Z,1.00
2023-03-17T15:55:59.554Z,1.08
2023-03-17T15:58:27.105Z,1.00
2023-03-17T16:01:00.068Z,1.10
2023-03-17T16:03:29.332Z,1.20
2023-03-17T16:05:56.631Z,1.20
2023-03-17T16:08:24.897Z,1.13
2023-03-17T16:10:52.290Z,1.15
2023-03-17T16:13:19.691Z,1.13
2023-03-17T16:15:58.208Z,1.00
2023-03-17T16:18:33.522Z,1.40
2023-03-17T16:21:01.422Z,1.35
2023-03-17T16:23:32.166Z,1.67
2023-03-17T16:26:13.740Z,1.70
2023-03-17T16:28:43.086Z,1.60
2023-03-17T16:31:29.283Z,1.63
2023-03-17T16:33:57.072Z,1.90
2023-03-17T16:36:25.565Z,2.38
2023-03-17T16:38:52.629Z,1.88
2023-03-17T16:41:25.561Z,2.30
2023-03-17T16:43:57.768Z,1.80
2023-03-17T16:46:27.238Z,1.92
2023-03-17T16:48:54.256Z,1.80
2023-03-17T16:51:21.233Z,2.40
2023-03-17T16:53:48.386Z,2.47
2023-03-17T16:56:21.447Z,2.10
2023-03-17T16:58:49.188Z,2.05
2023-03-17T17:01:27.840Z,2.25
2023-03-17T17:03:55.750Z,2.15
2023-03-17T17:06:24.027Z,2.70
2023-03-17T17:08:51.277Z,2.20
2023-03-17T17:11:19.944Z,2.50
2023-03-17T17:13:48.710Z,1.98
2023-03-17T17:16:29.169Z,2.40
2023-03-17T17:18:56.590Z,2.70
2023-03-17T17:21:23.631Z,2.55
2023-03-17T17:23:53.024Z,2.00
2023-03-17T17:26:20.917Z,2.35
2023-03-17T17:28:48.373Z,3.08
2023-03-17T17:31:15.742Z,4.90
2023-03-17T17:33:42.702Z,9.18
2023-03-17T17:36:15.126Z,8.98
2023-03-17T17:38:42.944Z,7.40
2023-03-17T17:41:12.077Z,8.63
2023-03-17T17:43:39.593Z,8.25
2023-03-17T17:46:18.549Z,6.18
2023-03-17T17:48:46.554Z,4.57
2023-03-17T17:51:13.648Z,2.88
2023-03-17T17:53:40.939Z,2.72
2023-03-17T17:56:11.052Z,2.42
2023-03-17T17:58:37.834Z,1.85
2023-03-17T18:01:05.580Z,2.08
2023-03-17T18:03:32.518Z,1.90
2023-03-17T18:06:00.926Z,1.60
2023-03-17T18:08:27.806Z,1.65
2023-03-17T18:10:56.666Z,1.75
2023-03-17T18:13:23.846Z,2.05
2023-03-17T18:15:51.934Z,2.30
2023-03-17T18:18:18.980Z,2.40
2023-03-17T18:20:46.144Z,2.90
2023-03-17T18:23:13.420Z,2.72
2023-03-17T18:25:41.179Z,2.55
2023-03-17T18:28:08.564Z,2.78
2023-03-17T18:30:36.471Z,3.13
2023-03-17T18:33:10.770Z,3.15
2023-03-17T18:35:38.386Z,3.45
2023-03-17T18:38:06.159Z,3.88
2023-03-17T18:40:34.029Z,3.55
2023-03-17T18:43:01.559Z,2.95
2023-03-17T18:45:29.039Z,2.58
2023-03-17T18:47:56.128Z,2.28
2023-03-17T18:50:23.686Z,2.80
2023-03-17T18:52:51.308Z,2.05
2023-03-17T18:55:19.144Z,2.38
2023-03-17T18:57:47.272Z,2.38
2023-03-17T19:00:18.735Z,1.95
2023-03-17T19:02:46.564Z,2.47
2023-03-17T19:05:14.548Z,2.30
2023-03-17T19:07:42.258Z,2.55
2023-03-17T19:10:12.234Z,3.03
2023-03-17T19:12:39.835Z,2.47
2023-03-17T19:15:08.902Z,2.90
2023-03-17T19:17:36.711Z,2.40
2023-03-17T19:20:04.382Z,2.38
2023-03-17T19:22:32.552Z,2.25
2023-03-17T19:24:59.796Z,2.40
2023-03-17T19:27:27.209Z,2.70
2023-03-17T19:29:54.323Z,3.20
2023-03-17T19:32:21.533Z,3.08
2023-03-17T19:34:48.947Z,3.17
2023-03-17T19:37:16.387Z,3.45
2023-03-17T19:39:44.904Z,3.85
2023-03-17T19:42:12.795Z,2.83
2023-03-17T19:44:40.175Z,3.42
2023-03-17T19:47:08.386Z,3.47
2023-03-17T19:49:37.595Z,3.10
2023-03-17T19:52:06.422Z,3.53
2023-03-17T19:54:33.884Z,3.50
2023-03-17T19:57:01.245Z,3.50
2023-03-17T19:59:28.554Z,3.33
2023-03-17T20:01:55.869Z,3.20
2023-03-17T20:04:23.484Z,3.15
2023-03-17T20:06:55.422Z,3.60
2023-03-17T20:09:24.699Z,3.53
2023-03-17T20:11:53.211Z,3.08
2023-03-17T20:14:20.969Z,3.72
2023-03-17T20:16:48.365Z,3.00
2023-03-17T20:19:16.424Z,2.92
2023-03-17T20:21:43.948Z,4.15
2023-03-17T20:24:12.895Z,8.02
2023-03-17T20:26:41.302Z,5.22
2023-03-17T20:29:09.787Z,3.60
2023-03-17T20:31:38.554Z,3.08
2023-03-17T20:34:05.884Z,3.30
2023-03-17T20:36:33.145Z,2.60
2023-03-17T20:39:00.446Z,2.80
2023-03-17T20:41:27.940Z,2.80
2023-03-17T20:43:55.162Z,2.63
2023-03-17T20:46:24.259Z,2.92
2023-03-17T20:48:58.337Z,2.50
2023-03-17T20:51:26.492Z,3.05
2023-03-17T20:53:55.180Z,2.95
2023-03-17T20:56:24.461Z,2.97
2023-03-17T20:58:53.289Z,2.90
2023-03-17T21:01:21.766Z,2.60
2023-03-17T21:03:49.220Z,2.92
2023-03-17T21:06:16.756Z,2.58
2023-03-17T21:08:43.991Z,2.80
2023-03-17T21:11:17.960Z,2.80
2023-03-17T21:13:45.421Z,2.95
2023-03-17T21:16:21.514Z,2.50
2023-03-17T21:21:16.528Z,2.08
2023-03-17T21:23:43.926Z,2.67
2023-03-17T21:26:11.294Z,3.17
2023-03-17T21:28:41.348Z,2.25
2023-03-17T21:31:09.871Z,2.40
2023-03-17T21:33:37.257Z,2.72
2023-03-17T21:36:04.885Z,2.85
2023-03-17T21:38:32.183Z,2.88
2023-03-17T21:41:17.534Z,2.40
2023-03-17T21:43:46.550Z,2.63
2023-03-17T21:46:14.714Z,2.67
2023-03-17T21:48:42.088Z,2.30
2023-03-17T21:51:08.870Z,2.13
2023-03-17T21:53:36.516Z,2.58
2023-03-17T21:56:04.039Z,2.97
2023-03-17T21:58:31.253Z,2.20
2023-03-17T22:01:00.629Z,2.20
2023-03-17T22:03:28.107Z,2.28
2023-03-17T22:05:56.660Z,2.42
2023-03-17T22:08:24.195Z,1.98
2023-03-17T22:10:51.663Z,1.90
2023-03-17T22:13:18.618Z,2.88
2023-03-17T22:15:45.856Z,3.10
2023-03-17T22:18:12.843Z,3.00
2023-03-17T22:20:39.740Z,3.40
2023-03-17T22:23:07.048Z,3.10
2023-03-17T22:25:33.864Z,2.50
2023-03-17T22:28:01.132Z,2.90
2023-03-17T22:30:28.235Z,2.25
2023-03-17T22:32:55.307Z,2.58
2023-03-17T22:35:23.445Z,2.65
2023-03-17T22:37:50.825Z,2.35
2023-03-17T22:40:19.096Z,2.17
2023-03-17T22:42:46.787Z,2.70
2023-03-17T22:45:13.605Z,2.28
2023-03-17T22:47:41.077Z,2.08
2023-03-17T22:50:08.686Z,2.38
2023-03-17T22:52:37.152Z,2.47
2023-03-17T22:55:04.492Z,2.38
2023-03-17T22:57:31.452Z,2.13
2023-03-17T22:59:59.171Z,2.28
2023-03-17T23:02:26.702Z,2.05
2023-03-17T23:04:53.597Z,2.40
2023-03-17T23:07:20.791Z,2.67
2023-03-17T23:09:48.500Z,2.80
2023-03-17T23:12:16.243Z,2.60
2023-03-17T23:14:43.742Z,2.85
2023-03-17T23:17:11.177Z,2.72
2023-03-17T23:19:38.072Z,3.47
2023-03-17T23:22:04.956Z,2.95
2023-03-17T23:24:32.245Z,2.95
2023-03-17T23:26:59.508Z,3.53
2023-03-17T23:29:28.077Z,3.30
2023-03-17T23:31:55.340Z,3.15
2023-03-17T23:34:22.595Z,3.22
2023-03-17T23:36:49.809Z,2.80
2023-03-17T23:39:17.046Z,2.97
2023-03-17T23:41:45.599Z,2.80
2023-03-17T23:44:14.306Z,2.97
2023-03-17T23:46:41.110Z,3.28
2023-03-17T23:49:08.502Z,3.45
2023-03-17T23:51:35.840Z,3.45
2023-03-17T23:54:04.179Z,3.03
2023-03-17T23:56:37.025Z,4.20
2023-03-17T23:59:04.143Z,2.95
